Time;durP1;ratioP1;P1;durP2;ratioP2;P2;SDS_P1;SDS_P2;PMS_P1;PMS_P2;Temp;Humidity;BMP_temperature;BMP_pressure;BME280_temperature;BME280_humidity;BME280_pressure;Samples;Min_cycle;Max_cycle;Signal;HPM_P1;HPM_P2
2023/01/26 00:01:00;;;;;;;92.07;37.13;;;;;;;2.85;100.00;99270.00;4970846;28;20125;-59
2023/01/26 00:03:26;;;;;;;91.03;36.40;;;;;;;2.52;100.00;99270.09;4970882;28;20073;-60
2023/01/26 00:05:51;;;;;;;92.43;36.77;;;;;;;2.03;100.00;99274.00;4985421;28;20109;-60
2023/01/26 00:08:17;;;;;;;93.47;37.13;;;;;;;1.85;100.00;99268.47;4971061;28;21084;-60
2023/01/26 00:10:49;;;;;;;95.07;37.40;;;;;;;1.65;100.00;99247.75;4984742;28;20661;-60
2023/01/26 00:13:18;;;;;;;95.10;37.17;;;;;;;1.58;100.00;99267.72;4985895;28;20046;-60
2023/01/26 00:15:44;;;;;;;96.87;37.63;;;;;;;1.43;100.00;99260.63;4970000;28;20357;-59
2023/01/26 00:18:10;;;;;;;95.50;36.83;;;;;;;1.43;100.00;99268.19;4971696;28;20463;-60
2023/01/26 00:20:35;;;;;;;97.20;37.80;;;;;;;1.33;100.00;99264.56;4968552;28;20038;-60
2023/01/26 00:23:01;;;;;;;96.53;37.03;;;;;;;1.10;100.00;99239.50;4969263;28;20779;-60
2023/01/26 00:25:27;;;;;;;97.40;37.23;;;;;;;1.05;100.00;99226.75;4971484;28;20605;-59
2023/01/26 00:27:53;;;;;;;98.90;37.80;;;;;;;1.18;100.00;99253.19;4971083;28;20538;-59
2023/01/26 00:30:19;;;;;;;98.33;37.33;;;;;;;1.15;100.00;99258.13;4971216;28;20057;-59
2023/01/26 00:32:45;;;;;;;98.67;36.97;;;;;;;1.11;100.00;99257.19;4973413;28;20173;-60
2023/01/26 00:35:10;;;;;;;99.30;37.80;;;;;;;1.15;100.00;99258.13;4985397;28;20038;-59
2023/01/26 00:37:39;;;;;;;99.20;37.83;;;;;;;1.09;100.00;99260.50;4969872;28;20042;-59
2023/01/26 00:40:05;;;;;;;99.60;37.67;;;;;;;0.96;100.00;99233.19;4968857;28;20050;-59
2023/01/26 00:42:31;;;;;;;99.20;37.40;;;;;;;1.06;100.00;99263.75;4968592;28;20601;-59
2023/01/26 00:44:57;;;;;;;100.40;38.13;;;;;;;0.97;100.00;99248.38;4967409;28;20089;-60
2023/01/26 00:47:22;;;;;;;100.13;37.53;;;;;;;0.84;100.00;99229.50;4970189;28;20066;-60
2023/01/26 00:49:48;;;;;;;100.70;37.90;;;;;;;1.01;100.00;99256.91;4967132;28;20046;-60
2023/01/26 00:52:15;;;;;;;99.23;37.00;;;;;;;0.95;100.00;99251.66;4969033;28;20053;-60
2023/01/26 00:54:40;;;;;;;100.27;37.40;;;;;;;0.94;100.00;99248.28;4968924;28;20623;-62
2023/01/26 00:57:08;;;;;;;99.73;37.27;;;;;;;0.81;100.00;99242.00;4969034;28;20053;-60
2023/01/26 00:59:34;;;;;;;97.67;36.57;;;;;;;0.79;100.00;99242.78;4985262;28;20054;-60
2023/01/26 01:02:01;;;;;;;98.77;37.17;;;;;;;0.87;100.00;99249.78;4969481;28;20046;-59
2023/01/26 01:04:29;;;;;;;98.97;36.93;;;;;;;0.81;100.00;99242.00;4968147;28;20034;-61
2023/01/26 01:06:58;;;;;;;98.47;36.33;;;;;;;0.82;100.00;99240.34;4968589;28;20094;-61
2023/01/26 01:09:24;;;;;;;98.80;36.67;;;;;;;0.68;100.00;99217.22;4968323;28;20065;-62
2023/01/26 01:11:50;;;;;;;98.43;36.63;;;;;;;0.84;100.00;99242.13;4983905;28;20502;-61
2023/01/26 01:14:16;;;;;;;99.17;36.90;;;;;;;0.84;100.00;99234.56;4984111;28;20038;-60
2023/01/26 01:16:44;;;;;;;99.27;37.30;;;;;;;0.81;100.00;99233.59;4983308;28;20185;-59
2023/01/26 01:19:14;;;;;;;98.73;36.67;;;;;;;0.82;100.00;99225.22;4983554;28;20128;-60
2023/01/26 01:21:40;;;;;;;99.47;37.37;;;;;;;0.69;100.00;99201.28;4979638;28;20104;-60
2023/01/26 01:24:09;;;;;;;99.40;37.13;;;;;;;0.85;100.00;99223.63;4966038;28;20494;-60
2023/01/26 01:26:35;;;;;;;99.27;36.97;;;;;;;0.76;100.00;99220.88;4976792;28;20030;-60
2023/01/26 01:29:01;;;;;;;98.80;36.67;;;;;;;0.78;100.00;99214.19;4969865;28;20069;-60
2023/01/26 01:31:28;;;;;;;99.23;37.23;;;;;;;0.72;100.00;99216.50;4967657;28;20138;-60
2023/01/26 01:33:55;;;;;;;101.30;37.73;;;;;;;0.65;100.00;99198.63;4976697;28;20034;-60
2023/01/26 01:36:21;;;;;;;101.13;37.20;;;;;;;0.62;100.00;99188.47;4968130;28;20573;-59
2023/01/26 01:38:49;;;;;;;101.97;38.00;;;;;;;0.70;100.00;99208.06;4968068;28;20046;-61
2023/01/26 01:41:18;;;;;;;101.93;38.07;;;;;;;0.54;100.00;99188.25;4987131;28;20550;-59
2023/01/26 01:43:44;;;;;;;101.90;38.27;;;;;;;0.69;100.00;99208.00;4972099;28;20494;-60
2023/01/26 01:46:15;;;;;;;100.73;37.20;;;;;;;0.67;100.00;99200.41;4969764;28;20529;-60
2023/01/26 01:49:05;;;;;;;101.20;37.60;;;;;;;0.68;100.00;99197.03;4969459;28;20046;-62
2023/01/26 01:51:40;;;;;;;101.63;38.00;;;;;;;0.74;100.00;99191.34;4968995;28;20042;-61
2023/01/26 01:54:12;;;;;;;101.53;37.77;;;;;;;0.71;100.00;99187.06;4976425;28;20120;-60
2023/01/26 01:56:42;;;;;;;100.70;37.47;;;;;;;0.66;100.00;99182.69;4970645;28;20074;-60
2023/01/26 01:59:10;;;;;;;99.97;37.10;;;;;;;0.77;100.00;99183.84;4968923;28;20101;-60
2023/01/26 02:01:36;;;;;;;100.27;37.47;;;;;;;0.68;100.00;99186.97;4969138;28;20101;-60
2023/01/26 02:04:04;;;;;;;100.47;37.47;;;;;;;0.70;100.00;99189.53;4969231;28;20046;-60
2023/01/26 02:06:42;;;;;;;100.37;37.80;;;;;;;0.73;100.00;99187.94;4983587;28;20105;-58
2023/01/26 02:10:17;;;;;;;101.77;38.17;;;;;;;0.71;100.00;99171.94;4968462;28;20628;-60
2023/01/26 02:11:56;;;;;;;102.20;37.63;;;;;;;0.71;100.00;99166.03;4966790;28;20464;-60
2023/01/26 02:14:23;;;;;;;103.07;38.50;;;;;;;0.58;100.00;99144.63;4966921;28;20150;-60
2023/01/26 02:16:49;;;;;;;102.37;38.30;;;;;;;0.68;100.00;99164.25;4970499;28;20182;-61
2023/01/26 02:19:26;;;;;;;100.43;37.00;;;;;;;0.67;100.00;99162.56;4982912;28;20050;-60
2023/01/26 02:21:55;;;;;;;100.60;37.37;;;;;;;0.71;100.00;99169.41;4968938;28;20217;-60
2023/01/26 02:24:25;;;;;;;99.90;36.87;;;;;;;0.67;100.00;99160.03;4968084;28;20046;-61
2023/01/26 02:26:52;;;;;;;99.10;36.73;;;;;;;0.72;100.00;99158.47;4983229;28;20042;-60
2023/01/26 02:29:17;;;;;;;100.33;37.43;;;;;;;0.64;100.00;99157.41;4966475;28;20104;-61
2023/01/26 02:31:43;;;;;;;100.13;37.20;;;;;;;0.69;100.00;99153.34;4982973;28;20054;-60
2023/01/26 02:34:09;;;;;;;101.03;37.70;;;;;;;0.67;100.00;99146.56;4972367;28;20078;-60
2023/01/26 02:36:35;;;;;;;100.57;37.03;;;;;;;0.68;100.00;99151.63;4986849;28;20047;-61
2023/01/26 02:39:25;;;;;;;100.43;37.30;;;;;;;0.63;100.00;99142.25;4979986;28;20426;-60
2023/01/26 02:44:41;;;;;;;98.80;36.43;;;;;;;0.45;100.00;99107.25;4979685;28;20049;-59
2023/01/26 02:47:16;;;;;;;99.13;36.87;;;;;;;0.65;100.00;99121.28;4970368;28;20061;-60
2023/01/26 02:49:51;;;;;;;98.47;36.87;;;;;;;0.61;100.00;99118.63;4984583;28;20049;-60
2023/01/26 02:52:22;;;;;;;98.70;36.63;;;;;;;0.66;100.00;99114.56;4977747;28;20047;-60
2023/01/26 02:57:39;;;;;;;100.10;37.17;;;;;;;0.40;100.00;99096.19;4985529;28;20367;-60
2023/01/26 03:00:09;;;;;;;100.23;36.93;;;;;;;0.54;100.00;99107.53;4986466;28;20042;-59
2023/01/26 03:02:35;;;;;;;100.17;36.93;;;;;;;0.58;100.00;99121.06;4971385;28;20698;-60
2023/01/26 03:05:03;;;;;;;99.73;36.77;;;;;;;0.59;100.00;99120.28;4972148;28;20062;-61
2023/01/26 03:07:29;;;;;;;98.70;36.60;;;;;;;0.53;100.00;99125.13;4985693;28;20038;-64
2023/01/26 03:09:55;;;;;;;99.07;36.67;;;;;;;0.58;100.00;99119.41;4985652;28;20290;-60
2023/01/26 03:12:21;;;;;;;100.07;37.17;;;;;;;0.52;100.00;99116.72;4970052;28;20134;-60
2023/01/26 03:15:33;;;;;;;100.30;37.10;;;;;;;0.48;100.00;99112.38;4971555;28;20038;-60
2023/01/26 03:17:32;;;;;;;99.67;37.13;;;;;;;0.40;100.00;99097.03;4969662;28;20213;-60
2023/01/26 03:28:12;;;;;;;98.67;36.60;;;;;;;0.47;100.00;99098.06;4986579;28;20504;-61
2023/01/26 03:30:39;;;;;;;98.80;36.67;;;;;;;0.55;100.00;99105.88;4987147;28;20316;-60
2023/01/26 03:33:05;;;;;;;98.40;36.53;;;;;;;0.55;100.00;99093.25;4985623;28;20092;-60
2023/01/26 03:35:31;;;;;;;98.53;36.83;;;;;;;0.41;100.00;99087.81;4974103;28;20042;-60
2023/01/26 03:37:58;;;;;;;99.47;37.03;;;;;;;0.35;100.00;99069.97;4974421;28;20048;-60
2023/01/26 03:57:05;;;;;;;98.73;36.27;;;;;;;0.57;100.00;99077.34;4969831;28;20153;-60
2023/01/26 03:59:38;;;;;;;98.37;36.30;;;;;;;0.54;100.00;99077.25;4975347;28;20340;-60
2023/01/26 04:10:29;;;;;;;99.10;36.90;;;;;;;1.66;100.00;99054.84;4972153;28;20443;-61
2023/01/26 04:21:33;;;;;;;97.57;36.73;;;;;;;2.44;100.00;99051.47;4970583;28;20214;-60
2023/01/26 04:24:12;;;;;;;97.13;36.80;;;;;;;2.25;100.00;99047.72;4984677;28;20042;-60
2023/01/26 04:26:40;;;;;;;97.90;37.37;;;;;;;2.18;100.00;99026.50;4987462;28;20133;-60
2023/01/26 04:29:12;;;;;;;96.83;37.23;;;;;;;2.56;100.00;99032.31;4969755;28;20434;-62
2023/01/26 04:31:39;;;;;;;94.27;36.50;;;;;;;2.67;100.00;99008.06;4984945;28;20055;-60
2023/01/26 04:34:09;;;;;;;94.90;36.70;;;;;;;2.32;100.00;99018.34;4984481;28;20453;-60
2023/01/26 04:36:37;;;;;;;95.23;36.83;;;;;;;2.47;100.00;99041.41;4978093;28;20046;-60
2023/01/26 04:39:03;;;;;;;94.83;36.60;;;;;;;2.59;100.00;99037.44;4968564;28;20053;-62
2023/01/26 04:41:31;;;;;;;95.10;36.80;;;;;;;2.19;100.00;99005.47;4969418;28;20042;-61
2023/01/26 04:44:03;;;;;;;96.10;37.20;;;;;;;2.16;100.00;99038.28;4986187;28;20054;-60
2023/01/26 04:46:29;;;;;;;95.20;36.90;;;;;;;2.03;100.00;99035.47;4982141;28;20096;-60
2023/01/26 04:48:55;;;;;;;97.33;39.67;;;;;;;2.34;100.00;99031.88;4969770;28;20137;-60
2023/01/26 04:51:23;;;;;;;94.83;36.40;;;;;;;2.12;100.00;99028.06;4978217;28;20105;-60
2023/01/26 04:53:49;;;;;;;95.43;36.67;;;;;;;2.01;100.00;99029.50;4985339;28;20067;-60
2023/01/26 04:56:23;;;;;;;95.80;37.00;;;;;;;2.21;100.00;99031.63;4973055;28;20072;-62
2023/01/26 04:58:50;;;;;;;95.50;36.80;;;;;;;2.18;100.00;99028.19;4985827;28;20038;-60
2023/01/26 05:01:17;;;;;;;96.53;37.27;;;;;;;1.93;100.00;99001.53;4972303;28;21537;-59
2023/01/26 05:03:43;;;;;;;96.07;37.47;;;;;;;1.71;100.00;99012.00;4970804;28;20137;-59
2023/01/26 05:06:10;;;;;;;97.73;38.93;;;;;;;1.50;100.00;99031.72;4972557;28;20053;-62
2023/01/26 05:08:37;;;;;;;96.13;37.13;;;;;;;1.34;100.00;99030.53;4985446;28;20026;-61
2023/01/26 05:11:03;;;;;;;97.70;37.60;;;;;;;1.08;100.00;99029.91;4973622;28;20046;-61
2023/01/26 05:13:47;;;;;;;98.33;37.90;;;;;;;1.05;100.00;99026.44;4969067;28;20454;-60
2023/01/26 05:16:33;;;;;;;97.90;36.97;;;;;;;0.95;100.00;99012.75;4984150;28;20125;-60
2023/01/26 05:19:26;;;;;;;98.37;36.83;;;;;;;0.85;100.00;99005.75;4987974;28;20112;-60
2023/01/26 05:22:12;;;;;;;98.50;36.77;;;;;;;0.96;100.00;99021.16;4982031;28;20046;-59
2023/01/26 05:24:41;;;;;;;98.50;36.90;;;;;;;0.88;100.00;99021.84;4986388;28;20066;-59
2023/01/26 05:27:21;;;;;;;98.83;36.87;;;;;;;0.82;100.00;99021.66;4980733;28;20050;-59
2023/01/26 05:29:59;;;;;;;99.53;37.20;;;;;;;0.62;100.00;98992.56;4973457;28;20057;-60
2023/01/26 05:32:29;;;;;;;100.30;37.57;;;;;;;0.80;100.00;99024.97;4972269;28;20290;-59
2023/01/26 05:34:55;;;;;;;99.90;37.07;;;;;;;0.62;100.00;99005.16;4987115;28;20129;-59
2023/01/26 05:37:23;;;;;;;99.93;37.20;;;;;;;0.66;100.00;99014.53;4978211;28;20145;-60
2023/01/26 05:39:53;;;;;;;99.37;36.90;;;;;;;0.74;100.00;99018.09;4987515;28;20137;-59
2023/01/26 05:42:20;;;;;;;99.70;37.20;;;;;;;0.77;100.00;99028.25;4986795;28;20131;-62
2023/01/26 05:44:49;;;;;;;99.90;37.03;;;;;;;0.63;100.00;99014.44;4985815;28;20043;-60
2023/01/26 05:47:16;;;;;;;100.17;37.10;;;;;;;0.61;100.00;99012.69;4986478;28;20592;-54
2023/01/26 05:49:45;;;;;;;99.50;36.93;;;;;;;0.69;100.00;99034.78;4988320;28;20078;-61
2023/01/26 05:52:18;;;;;;;100.50;37.63;;;;;;;0.68;100.00;99029.72;4970747;28;20261;-59
2023/01/26 05:54:44;;;;;;;101.70;38.97;;;;;;;0.73;100.00;99033.19;4960489;28;20099;-60
2023/01/26 05:57:11;;;;;;;100.90;37.27;;;;;;;0.71;100.00;99039.88;4972324;28;20122;-62
2023/01/26 05:59:40;;;;;;;99.17;36.67;;;;;;;0.73;100.00;99038.22;4982683;28;20035;-62
2023/01/26 06:02:10;;;;;;;100.90;37.23;;;;;;;0.58;100.00;99020.19;4969861;28;20043;-62
2023/01/26 06:04:36;;;;;;;100.27;37.43;;;;;;;0.68;100.00;99039.81;4969393;28;20397;-64
2023/01/26 06:07:02;;;;;;;101.13;38.03;;;;;;;0.50;100.00;99021.66;4985892;28;20382;-54
2023/01/26 06:09:33;;;;;;;101.47;38.37;;;;;;;0.66;100.00;99038.91;4985860;28;20043;-60
2023/01/26 06:12:21;;;;;;;101.20;37.57;;;;;;;0.46;100.00;99013.16;4989197;28;20061;-61
2023/01/26 06:14:57;;;;;;;101.30;37.93;;;;;;;0.65;100.00;99038.03;4974782;28;20054;-62
2023/01/26 06:17:31;;;;;;;98.93;36.37;;;;;;;0.69;100.00;99039.81;4988683;28;20476;-61
2023/01/26 06:19:59;;;;;;;100.97;37.80;;;;;;;0.70;100.00;99036.50;4987983;28;20478;-62
2023/01/26 06:22:25;;;;;;;101.93;38.00;;;;;;;0.50;100.00;99001.47;4975281;28;20106;-61
2023/01/26 06:24:51;;;;;;;102.23;38.23;;;;;;;0.71;100.00;99035.69;4973669;28;20882;-61
2023/01/26 06:27:20;;;;;;;103.00;37.97;;;;;;;0.72;100.00;99039.06;4988326;28;20070;-62
2023/01/26 06:29:48;;;;;;;102.37;38.07;;;;;;;0.66;100.00;99027.13;4975049;28;20294;-60
2023/01/26 06:32:14;;;;;;;102.57;37.93;;;;;;;0.68;100.00;99022.97;4974450;28;20157;-60
2023/01/26 06:34:42;;;;;;;101.33;37.37;;;;;;;0.59;100.00;99006.75;4974381;28;20038;-61
2023/01/26 06:37:09;;;;;;;99.97;37.07;;;;;;;0.69;100.00;99017.13;4988135;28;20049;-59
2023/01/26 06:39:39;;;;;;;101.97;37.77;;;;;;;0.69;100.00;99027.22;4987677;28;20077;-60
2023/01/26 06:42:07;;;;;;;100.77;37.20;;;;;;;0.71;100.00;99033.16;4973518;28;20046;-59
2023/01/26 06:44:33;;;;;;;102.63;39.10;;;;;;;0.70;100.00;99028.91;4987013;28;20046;-60
2023/01/26 06:46:58;;;;;;;101.60;37.77;;;;;;;0.59;100.00;99009.28;4987843;28;20041;-61
2023/01/26 06:49:24;;;;;;;99.53;37.03;;;;;;;0.70;100.00;99023.88;4973249;28;20414;-60
2023/01/26 06:52:02;;;;;;;100.27;37.37;;;;;;;0.72;100.00;99024.75;4986887;28;20046;-60
2023/01/26 06:54:40;;;;;;;101.07;38.17;;;;;;;0.68;100.00;99030.53;4983371;28;20157;-61
2023/01/26 06:57:19;;;;;;;100.70;37.30;;;;;;;0.71;100.00;99033.16;4977243;28;20470;-62
2023/01/26 07:00:23;;;;;;;101.57;37.70;;;;;;;0.72;100.00;99029.81;4999892;28;20046;-61
2023/01/26 07:02:56;;;;;;;100.93;37.60;;;;;;;0.74;100.00;99030.72;4999198;28;20084;-60
2023/01/26 07:05:22;;;;;;;101.47;38.37;;;;;;;0.77;100.00;99034.97;4997604;28;20124;-61
2023/01/26 07:07:48;;;;;;;99.93;37.43;;;;;;;0.76;100.00;99043.38;4998517;28;20045;-59
2023/01/26 07:10:14;;;;;;;102.57;38.30;;;;;;;0.73;100.00;99031.53;4999679;28;20169;-60
2023/01/26 07:12:44;;;;;;;101.73;38.13;;;;;;;0.76;100.00;99026.56;4999944;28;20058;-60
2023/01/26 07:15:11;;;;;;;102.37;38.73;;;;;;;0.67;100.00;99012.84;4996737;28;20849;-60
2023/01/26 07:17:38;;;;;;;101.47;37.70;;;;;;;0.62;100.00;99007.69;4998935;28;20131;-61
2023/01/26 07:20:05;;;;;;;101.77;38.17;;;;;;;0.66;100.00;98996.88;4999356;28;20045;-60
2023/01/26 07:22:31;;;;;;;100.60;37.67;;;;;;;0.81;100.00;99025.00;4998926;28;20611;-60
2023/01/26 07:24:57;;;;;;;99.40;37.30;;;;;;;0.82;100.00;99031.75;4999102;28;20054;-61
2023/01/26 07:27:22;;;;;;;100.40;37.47;;;;;;;0.86;100.00;99025.13;4998024;28;20056;-59
2023/01/26 07:29:50;;;;;;;100.27;37.33;;;;;;;0.74;100.00;99000.44;4999117;28;20060;-60
2023/01/26 07:32:16;;;;;;;100.83;37.33;;;;;;;0.84;100.00;99017.53;4972504;28;20097;-61
2023/01/26 07:34:41;;;;;;;100.47;37.90;;;;;;;0.93;100.00;99032.06;4970503;28;20046;-60
2023/01/26 07:37:07;;;;;;;99.77;37.23;;;;;;;0.78;100.00;99009.78;4969956;28;20057;-60
2023/01/26 07:39:32;;;;;;;99.40;37.00;;;;;;;0.95;100.00;99032.06;4970207;28;20042;-60
2023/01/26 07:41:58;;;;;;;99.93;37.40;;;;;;;0.90;100.00;99030.28;4970399;28;20051;-60
2023/01/26 07:44:44;;;;;;;100.37;37.60;;;;;;;0.90;100.00;99021.84;4971686;28;20612;-60
2023/01/26 07:47:10;;;;;;;99.77;37.07;;;;;;;0.94;100.00;99031.22;4969740;28;20482;-60
2023/01/26 07:49:36;;;;;;;99.70;37.10;;;;;;;0.95;100.00;99024.50;4973103;28;20494;-60
2023/01/26 07:52:04;;;;;;;99.83;37.43;;;;;;;0.88;100.00;99028.56;4971347;28;20418;-60
2023/01/26 07:54:30;;;;;;;98.80;37.07;;;;;;;0.90;100.00;99025.25;4969560;28;20047;-59
2023/01/26 07:56:56;;;;;;;100.27;37.60;;;;;;;0.91;100.00;99016.84;4970810;28;20038;-61
2023/01/26 07:59:22;;;;;;;100.40;37.50;;;;;;;0.99;100.00;99027.13;4971366;28;20533;-60
2023/01/26 08:01:50;;;;;;;98.57;36.83;;;;;;;1.03;100.00;99023.88;4984984;28;20038;-59
2023/01/26 08:04:16;;;;;;;99.23;37.20;;;;;;;0.94;100.00;99028.69;4971400;28;20082;-61
2023/01/26 08:06:41;;;;;;;99.40;37.30;;;;;;;0.93;100.00;99024.47;4971241;28;20129;-61
2023/01/26 08:09:07;;;;;;;99.77;37.93;;;;;;;0.98;100.00;99024.59;4979575;28;20081;-60
2023/01/26 08:11:33;;;;;;;99.57;37.60;;;;;;;1.00;100.00;99017.91;4972292;28;20568;-59
2023/01/26 08:13:59;;;;;;;99.87;37.70;;;;;;;1.05;100.00;99018.88;4969727;28;20463;-59
2023/01/26 08:16:25;;;;;;;102.13;38.77;;;;;;;0.93;100.00;98998.38;4970350;28;20482;-58
2023/01/26 08:18:50;;;;;;;100.67;38.47;;;;;;;1.12;100.00;99018.19;4971111;28;20042;-60
2023/01/26 08:21:17;;;;;;;102.43;39.03;;;;;;;1.13;100.00;99019.91;4969581;28;20097;-59
2023/01/26 08:23:47;;;;;;;100.10;38.10;;;;;;;0.91;100.00;98989.09;4968231;28;20061;-59
2023/01/26 08:26:13;;;;;;;101.07;38.30;;;;;;;1.13;100.00;99020.78;4970394;28;20050;-59
2023/01/26 08:28:40;;;;;;;100.97;37.93;;;;;;;1.06;100.00;99023.13;4969636;28;20101;-59
2023/01/26 08:31:18;;;;;;;100.53;39.10;;;;;;;1.07;100.00;99022.28;4970747;28;20113;-60
2023/01/26 08:33:45;;;;;;;100.73;38.50;;;;;;;1.10;100.00;99014.81;4967004;28;20515;-60
2023/01/26 08:36:12;;;;;;;99.27;37.73;;;;;;;1.10;100.00;99013.13;4970183;28;20578;-60
2023/01/26 08:38:38;;;;;;;101.13;38.30;;;;;;;1.08;100.00;99019.81;4969294;28;20431;-59
2023/01/26 08:41:05;;;;;;;101.30;38.43;;;;;;;1.10;100.00;99024.91;4969515;28;20058;-59
2023/01/26 08:43:30;;;;;;;100.30;37.93;;;;;;;1.09;100.00;99013.09;4984126;28;20042;-59
2023/01/26 08:45:56;;;;;;;99.90;37.53;;;;;;;1.17;100.00;99011.59;4977199;28;20053;-59
2023/01/26 08:48:22;;;;;;;99.77;37.80;;;;;;;1.13;100.00;99015.72;4971181;28;20161;-60
2023/01/26 08:50:53;;;;;;;99.63;37.37;;;;;;;1.10;100.00;98995.47;4970184;28;20042;-59
2023/01/26 08:53:18;;;;;;;100.13;38.30;;;;;;;1.22;100.00;99018.47;4970258;28;20046;-59
2023/01/26 08:55:44;;;;;;;99.80;38.63;;;;;;;1.12;100.00;98998.00;4970628;28;20039;-50
2023/01/26 08:58:09;;;;;;;99.03;38.10;;;;;;;1.19;100.00;98994.81;4971140;28;20038;-61
2023/01/26 09:00:36;;;;;;;97.80;36.90;;;;;;;1.15;100.00;98983.78;4971422;28;20038;-60
2023/01/26 09:03:03;;;;;;;98.73;37.80;;;;;;;1.74;100.00;99001.97;4969273;28;20061;-60
2023/01/26 09:05:35;;;;;;;97.63;37.93;;;;;;;2.15;100.00;98991.06;4968017;28;20061;-59
2023/01/26 09:08:02;;;;;;;97.20;37.57;;;;;;;2.24;100.00;99001.34;4966264;28;20149;-61
2023/01/26 09:10:28;;;;;;;96.70;37.27;;;;;;;2.25;100.00;98999.66;4969568;28;20116;-61
2023/01/26 09:12:56;;;;;;;96.87;37.53;;;;;;;2.13;100.00;98967.41;4970079;28;20046;-62
2023/01/26 09:15:22;;;;;;;96.90;37.83;;;;;;;2.70;100.00;98997.16;4968638;28;20038;-61
2023/01/26 09:17:48;;;;;;;97.17;38.43;;;;;;;2.87;100.00;99005.91;4969971;28;20047;-61
2023/01/26 09:20:14;;;;;;;95.63;38.20;;;;;;;2.90;100.00;99000.03;4965835;28;20038;-60
2023/01/26 09:22:40;;;;;;;94.63;37.53;;;;;;;2.57;100.00;98975.84;4965467;28;20054;-60
2023/01/26 09:25:06;;;;;;;93.93;36.97;;;;;;;2.74;100.00;98986.25;4966356;28;20046;-61
2023/01/26 09:27:31;;;;;;;93.93;37.37;;;;;;;2.92;100.00;99011.03;4984403;28;20046;-61
2023/01/26 09:29:57;;;;;;;93.93;37.80;;;;;;;2.82;100.00;98991.44;4967933;28;20481;-60
2023/01/26 09:32:22;;;;;;;93.20;37.00;;;;;;;2.48;100.00;99000.97;4968247;28;20051;-60
2023/01/26 09:34:48;;;;;;;93.43;37.13;;;;;;;2.24;100.00;98980.25;4968009;28;20445;-61
2023/01/26 09:37:14;;;;;;;93.37;37.37;;;;;;;2.74;100.00;99006.50;4969538;28;20039;-59
2023/01/26 09:39:40;;;;;;;92.67;37.27;;;;;;;2.37;100.00;98982.22;4966825;28;20597;-59
2023/01/26 09:42:27;;;;;;;93.50;37.33;;;;;;;2.58;100.00;99002.00;4970825;28;20972;-58
2023/01/26 09:45:12;;;;;;;93.73;37.63;;;;;;;2.55;100.00;98992.66;4986409;28;20580;-59
2023/01/26 09:47:53;;;;;;;93.30;36.90;;;;;;;2.47;100.00;98989.13;4971495;28;20077;-59
2023/01/26 09:50:35;;;;;;;95.10;38.60;;;;;;;2.40;100.00;98991.53;4973233;28;20593;-61
2023/01/26 09:53:40;;;;;;;95.07;37.93;;;;;;;2.23;100.00;98983.59;4974952;28;20377;-59
2023/01/26 09:56:24;;;;;;;94.23;37.50;;;;;;;2.30;100.00;98978.69;4972735;28;20515;-59
2023/01/26 09:59:27;;;;;;;93.33;37.23;;;;;;;2.29;100.00;98984.56;4971513;28;20517;-59
2023/01/26 10:02:15;;;;;;;93.73;37.33;;;;;;;2.29;100.00;98979.50;4972195;28;20043;-61
2023/01/26 10:04:43;;;;;;;93.37;36.63;;;;;;;2.12;100.00;98980.03;4972722;28;20490;-57
2023/01/26 10:07:11;;;;;;;93.13;37.27;;;;;;;2.05;100.00;98973.13;4971177;28;20125;-57
2023/01/26 10:09:51;;;;;;;91.67;35.83;;;;;;;1.95;100.00;98968.72;4972632;28;20050;-58
2023/01/26 10:12:33;;;;;;;94.03;38.13;;;;;;;1.85;100.00;98970.19;4971195;28;20457;-59
2023/01/26 10:15:09;;;;;;;94.13;37.27;;;;;;;1.83;100.00;98976.88;4972791;28;20046;-60
2023/01/26 10:17:43;;;;;;;93.43;36.50;;;;;;;1.74;100.00;98976.72;4972230;28;20355;-59
2023/01/26 10:20:32;;;;;;;94.00;36.87;;;;;;;1.59;100.00;98957.00;4972493;28;20042;-59
2023/01/26 10:23:06;;;;;;;94.67;37.23;;;;;;;1.63;100.00;98966.34;4972055;28;20524;-59
2023/01/26 10:25:40;;;;;;;95.67;38.10;;;;;;;1.54;100.00;98940.88;4973004;28;20042;-60
2023/01/26 10:28:17;;;;;;;95.33;37.47;;;;;;;1.70;100.00;98968.19;4970472;28;20138;-59
2023/01/26 10:30:46;;;;;;;94.80;36.67;;;;;;;1.45;100.00;98943.22;4973030;28;20081;-58
2023/01/26 10:33:18;;;;;;;95.67;37.20;;;;;;;1.65;100.00;98968.94;4972651;28;20048;-56
2023/01/26 10:35:44;;;;;;;96.57;38.57;;;;;;;1.59;100.00;98959.53;4972719;28;20038;-60
2023/01/26 10:38:31;;;;;;;96.23;37.47;;;;;;;1.42;100.00;98934.72;4979859;28;20042;-60
2023/01/26 10:41:00;;;;;;;94.80;36.97;;;;;;;1.55;100.00;98957.75;4985780;28;20505;-60
2023/01/26 10:43:25;;;;;;;98.07;39.23;;;;;;;1.50;100.00;98955.94;4976526;28;20057;-59
2023/01/26 10:45:51;;;;;;;96.40;37.17;;;;;;;1.49;100.00;98952.56;4971935;28;20860;-57
2023/01/26 10:48:25;;;;;;;96.93;37.33;;;;;;;1.51;100.00;98947.56;4971706;28;20171;-61
2023/01/26 10:50:52;;;;;;;97.30;37.70;;;;;;;1.51;100.00;98945.03;4971224;28;20320;-64
2023/01/26 10:53:23;;;;;;;97.20;37.33;;;;;;;1.55;100.00;98945.13;4971663;28;20438;-61
2023/01/26 10:56:14;;;;;;;95.50;36.63;;;;;;;1.49;100.00;98942.47;4971692;28;20042;-61
2023/01/26 10:58:43;;;;;;;96.33;37.23;;;;;;;1.53;100.00;98936.66;4970930;28;20047;-63
2023/01/26 11:01:11;;;;;;;96.07;37.10;;;;;;;1.37;100.00;98905.16;4969333;28;20045;-59
2023/01/26 11:03:37;;;;;;;97.23;37.87;;;;;;;1.39;100.00;98905.22;4968190;28;20039;-60
2023/01/26 11:06:16;;;;;;;96.70;37.30;;;;;;;1.52;100.00;98926.53;4970158;28;20094;-61
2023/01/26 11:08:42;;;;;;;96.80;37.60;;;;;;;1.55;100.00;98924.91;4969894;28;20051;-61
2023/01/26 11:11:37;;;;;;;97.27;37.37;;;;;;;1.58;100.00;98924.13;4972324;28;20181;-61
2023/01/26 11:14:17;;;;;;;97.10;37.33;;;;;;;1.49;100.00;98908.75;4971471;28;20203;-60
2023/01/26 11:16:57;;;;;;;97.30;37.33;;;;;;;1.48;100.00;98900.34;4971986;28;20360;-60
2023/01/26 11:19:41;;;;;;;95.47;36.57;;;;;;;1.51;100.00;98904.59;4972137;28;20050;-60
2023/01/26 11:22:18;;;;;;;97.47;37.83;;;;;;;1.40;100.00;98891.75;4971374;28;20471;-60
2023/01/26 11:25:23;;;;;;;96.53;37.03;;;;;;;1.41;100.00;98892.59;4972465;28;20489;-61
2023/01/26 11:28:04;;;;;;;97.40;38.30;;;;;;;1.47;100.00;98892.75;4969185;28;20030;-61
2023/01/26 11:30:38;;;;;;;97.90;37.87;;;;;;;1.40;100.00;98874.06;4967206;28;20039;-61
2023/01/26 11:33:36;;;;;;;97.47;37.40;;;;;;;1.49;100.00;98888.56;4971278;28;21062;-61
2023/01/26 11:36:13;;;;;;;96.57;37.07;;;;;;;1.50;100.00;98881.03;4978278;28;20086;-61
2023/01/26 11:39:17;;;;;;;96.83;37.23;;;;;;;1.31;100.00;98857.06;4971007;28;20055;-61
2023/01/26 11:42:19;;;;;;;96.83;37.13;;;;;;;1.55;100.00;98876.91;4980356;28;20062;-61
2023/01/26 11:45:04;;;;;;;95.20;36.53;;;;;;;1.47;100.00;98872.53;4971046;28;20039;-61
2023/01/26 11:47:38;;;;;;;95.83;36.67;;;;;;;1.44;100.00;98862.38;4970747;28;20055;-61
2023/01/26 11:50:25;;;;;;;96.77;37.00;;;;;;;1.51;100.00;98867.56;4971206;28;20069;-61
2023/01/26 11:52:56;;;;;;;97.70;37.40;;;;;;;1.47;100.00;98865.81;4970707;28;20601;-61
2023/01/26 11:55:44;;;;;;;97.60;37.13;;;;;;;1.49;100.00;98858.25;4971119;28;20078;-62
2023/01/26 11:58:19;;;;;;;97.87;37.50;;;;;;;1.60;100.00;98852.59;4968593;28;20501;-61
2023/01/26 12:00:56;;;;;;;97.67;37.47;;;;;;;1.65;100.00;98862.81;4968202;28;20043;-62
2023/01/26 12:03:34;;;;;;;96.30;37.07;;;;;;;1.41;100.00;98831.97;4970024;28;20050;-62
2023/01/26 12:06:05;;;;;;;97.80;37.43;;;;;;;1.64;100.00;98854.38;4969282;28;20758;-62
2023/01/26 12:08:37;;;;;;;97.97;38.17;;;;;;;1.66;100.00;98856.91;4964200;28;20177;-61
2023/01/26 12:11:22;;;;;;;97.63;37.73;;;;;;;1.74;100.00;98856.22;4970889;28;20573;-63
2023/01/26 12:14:13;;;;;;;96.17;37.07;;;;;;;1.69;100.00;98849.41;4970218;28;20097;-62
2023/01/26 12:16:59;;;;;;;97.37;38.03;;;;;;;1.73;100.00;98849.50;4966646;28;20386;-64
2023/01/26 12:19:38;;;;;;;97.57;37.50;;;;;;;1.65;100.00;98837.53;4969951;28;20555;-63